createdAt,value
2019-06-27T00:00:30.505Z,1.83
2019-06-27T00:02:59.518Z,1.60
2019-06-27T00:05:28.574Z,1.43
2019-06-27T00:07:57.394Z,1.80
2019-06-27T00:10:26.411Z,1.80
2019-06-27T00:12:55.337Z,1.80
2019-06-27T00:15:24.534Z,1.97
2019-06-27T00:17:53.448Z,1.67
2019-06-27T00:20:22.467Z,1.37
2019-06-27T00:22:51.427Z,2.20
2019-06-27T00:25:21.200Z,1.60
2019-06-27T00:27:50.224Z,1.47
2019-06-27T00:30:19.194Z,1.57
2019-06-27T00:32:48.116Z,1.43
2019-06-27T00:35:17.129Z,1.60
2019-06-27T00:37:46.370Z,1.73
2019-06-27T00:40:16.064Z,1.47
2019-06-27T00:42:44.983Z,1.53
2019-06-27T00:45:13.978Z,1.37
2019-06-27T00:47:42.811Z,1.50
2019-06-27T00:50:12.235Z,1.50
2019-06-27T00:52:41.177Z,1.90
2019-06-27T00:55:10.826Z,1.60
2019-06-27T00:57:39.841Z,1.50
2019-06-27T01:00:09.882Z,1.60
2019-06-27T01:02:38.883Z,1.40
2019-06-27T01:05:08.394Z,1.82
2019-06-27T01:07:37.896Z,1.80
2019-06-27T01:10:08.418Z,1.90
2019-06-27T01:12:37.413Z,1.43
2019-06-27T01:15:06.607Z,2.13
2019-06-27T01:17:35.934Z,1.87
2019-06-27T01:20:06.958Z,1.50
2019-06-27T01:22:36.279Z,1.70
2019-06-27T01:25:06.205Z,1.70
2019-06-27T01:27:35.190Z,1.67
2019-06-27T01:30:04.574Z,1.60
2019-06-27T01:32:33.490Z,1.83
2019-06-27T01:35:04.379Z,2.00
2019-06-27T01:37:33.382Z,1.60
2019-06-27T01:40:02.371Z,1.33
2019-06-27T01:42:31.308Z,1.17
2019-06-27T01:45:09.478Z,1.73
2019-06-27T01:47:38.484Z,1.60
2019-06-27T01:50:07.880Z,1.67
2019-06-27T01:52:37.069Z,1.60
2019-06-27T01:55:06.551Z,1.23
2019-06-27T01:57:46.208Z,1.30
2019-06-27T02:00:06.944Z,1.60
2019-06-27T02:02:36.238Z,1.53
2019-06-27T02:05:05.624Z,1.43
2019-06-27T02:07:34.669Z,1.57
2019-06-27T02:10:03.713Z,1.50
2019-06-27T02:12:33.311Z,1.33
2019-06-27T02:15:02.547Z,1.33
2019-06-27T02:17:31.862Z,1.30
2019-06-27T02:20:00.830Z,1.30
2019-06-27T02:22:29.945Z,1.63
2019-06-27T02:24:59.055Z,1.33
2019-06-27T02:27:28.413Z,1.40
2019-06-27T02:29:57.346Z,1.27
2019-06-27T02:32:26.282Z,1.30
2019-06-27T02:34:55.207Z,1.33
2019-06-27T02:37:24.152Z,1.10
2019-06-27T02:39:53.180Z,1.50
2019-06-27T02:42:22.118Z,1.47
2019-06-27T02:44:51.046Z,1.27
2019-06-27T02:47:20.129Z,1.50
2019-06-27T02:49:50.455Z,1.90
2019-06-27T02:52:20.059Z,1.30
2019-06-27T02:54:49.048Z,1.40
2019-06-27T02:57:18.523Z,1.43
2019-06-27T02:59:48.025Z,1.30
2019-06-27T03:02:16.944Z,1.73
2019-06-27T03:04:45.876Z,1.77
2019-06-27T03:07:14.829Z,1.63
2019-06-27T03:09:43.891Z,1.73
2019-06-27T03:12:12.725Z,1.73
2019-06-27T03:14:41.676Z,1.20
2019-06-27T03:17:10.687Z,1.20
2019-06-27T03:19:40.165Z,1.60
2019-06-27T03:22:09.138Z,1.70
2019-06-27T03:24:38.242Z,2.00
2019-06-27T03:27:07.285Z,1.40
2019-06-27T03:29:36.315Z,1.60
2019-06-27T03:32:05.600Z,1.50
2019-06-27T03:34:34.587Z,1.67
2019-06-27T03:37:03.632Z,1.30
2019-06-27T03:39:32.672Z,1.33
2019-06-27T03:42:01.797Z,1.70
2019-06-27T03:44:30.687Z,1.87
2019-06-27T03:46:59.673Z,1.73
2019-06-27T03:49:29.007Z,1.80
2019-06-27T03:51:57.871Z,1.50
2019-06-27T03:54:27.262Z,1.50
2019-06-27T03:56:56.165Z,1.83
2019-06-27T03:59:25.266Z,2.17
2019-06-27T04:01:54.212Z,1.80
2019-06-27T04:04:23.793Z,2.00
2019-06-27T04:06:53.025Z,1.30
2019-06-27T04:09:21.937Z,1.60
2019-06-27T04:11:51.366Z,1.67
2019-06-27T04:14:20.353Z,1.93
2019-06-27T04:16:49.781Z,1.80
2019-06-27T04:19:19.404Z,2.13
2019-06-27T04:21:48.642Z,1.87
2019-06-27T04:24:17.563Z,1.93
2019-06-27T04:26:46.730Z,2.20
2019-06-27T04:29:32.088Z,2.17
2019-06-27T04:31:46.265Z,2.47
2019-06-27T04:34:19.573Z,1.97
2019-06-27T04:36:46.023Z,1.80
2019-06-27T04:39:14.923Z,2.07
2019-06-27T04:41:43.920Z,1.87
2019-06-27T04:44:12.808Z,2.00
2019-06-27T04:46:41.766Z,2.20
2019-06-27T04:49:13.586Z,1.90
2019-06-27T04:51:41.831Z,2.00
2019-06-27T04:54:11.108Z,2.33
2019-06-27T04:56:40.320Z,1.83
2019-06-27T04:59:09.302Z,1.83
2019-06-27T05:01:38.347Z,2.70
2019-06-27T05:04:07.274Z,2.20
2019-06-27T05:06:36.237Z,1.97
2019-06-27T05:09:05.526Z,1.87
2019-06-27T05:11:34.589Z,1.80
2019-06-27T05:14:03.571Z,2.10
2019-06-27T05:16:33.062Z,1.60
2019-06-27T05:19:02.560Z,1.90
2019-06-27T05:21:31.479Z,1.97
2019-06-27T05:24:00.804Z,2.10
2019-06-27T05:26:29.721Z,2.20
2019-06-27T05:28:58.584Z,2.20
2019-06-27T05:31:27.491Z,2.43
2019-06-27T05:33:56.778Z,2.30
2019-06-27T05:36:25.826Z,2.53
2019-06-27T05:38:54.770Z,2.50
2019-06-27T05:41:24.047Z,2.40
2019-06-27T05:43:52.943Z,2.70
2019-06-27T05:46:21.807Z,2.40
2019-06-27T05:48:50.783Z,1.93
2019-06-27T05:51:20.132Z,2.17
2019-06-27T05:53:49.088Z,2.40
2019-06-27T05:56:18.218Z,2.27
2019-06-27T05:58:47.256Z,2.23
2019-06-27T06:01:16.289Z,2.60
2019-06-27T06:03:45.141Z,2.20
2019-06-27T06:06:14.423Z,2.17
2019-06-27T06:08:43.551Z,2.37
2019-06-27T06:11:12.599Z,2.40
2019-06-27T06:13:41.854Z,2.10
2019-06-27T06:16:11.035Z,2.00
2019-06-27T06:18:40.352Z,2.40
2019-06-27T06:21:09.711Z,2.17
2019-06-27T06:23:38.572Z,2.07
2019-06-27T06:26:07.570Z,1.67
2019-06-27T06:28:36.939Z,2.00
2019-06-27T06:31:06.291Z,2.20
2019-06-27T06:33:35.168Z,1.80
2019-06-27T06:36:04.468Z,2.30
2019-06-27T06:38:33.416Z,2.27
2019-06-27T06:41:02.939Z,1.83
2019-06-27T06:43:31.840Z,2.33
2019-06-27T06:46:01.148Z,2.10
2019-06-27T06:48:30.277Z,1.70
2019-06-27T06:50:59.183Z,1.87
2019-06-27T06:53:28.186Z,2.37
2019-06-27T06:55:57.523Z,2.60
2019-06-27T06:58:26.443Z,2.40
2019-06-27T07:01:01.575Z,2.57
2019-06-27T07:03:25.958Z,1.93
2019-06-27T07:05:55.227Z,2.10
2019-06-27T07:08:24.201Z,2.20
2019-06-27T07:10:53.245Z,1.97
2019-06-27T07:13:22.728Z,2.13
2019-06-27T07:15:52.456Z,2.03
2019-06-27T07:18:21.725Z,1.90
2019-06-27T07:20:50.644Z,1.90
2019-06-27T07:23:20.135Z,1.77
2019-06-27T07:25:49.051Z,2.33
2019-06-27T07:28:18.283Z,1.63
2019-06-27T07:30:47.247Z,2.20
2019-06-27T07:33:16.156Z,1.63
2019-06-27T07:35:45.122Z,1.63
2019-06-27T07:38:14.155Z,1.73
2019-06-27T07:40:43.500Z,1.13
2019-06-27T07:43:12.459Z,1.53
2019-06-27T07:45:41.368Z,1.67
2019-06-27T07:48:10.299Z,1.33
2019-06-27T07:50:39.508Z,1.77
2019-06-27T07:53:08.750Z,1.60
2019-06-27T07:55:37.602Z,1.53
2019-06-27T07:58:06.603Z,1.37
2019-06-27T08:00:35.926Z,1.47
2019-06-27T08:03:04.878Z,1.30
2019-06-27T08:05:33.787Z,1.33
2019-06-27T08:08:03.025Z,1.47
2019-06-27T08:10:31.966Z,1.20
2019-06-27T08:13:00.993Z,1.40
2019-06-27T08:15:30.087Z,0.93
2019-06-27T08:17:59.405Z,1.40
2019-06-27T08:20:28.345Z,1.37
2019-06-27T08:22:57.280Z,1.37
2019-06-27T08:25:26.482Z,1.10
2019-06-27T08:27:55.548Z,1.27
2019-06-27T08:30:24.573Z,1.03
2019-06-27T08:32:53.529Z,1.30
2019-06-27T08:35:22.354Z,1.10
2019-06-27T08:37:51.539Z,1.10
2019-06-27T08:40:21.101Z,1.20
2019-06-27T08:42:50.804Z,1.20
2019-06-27T08:45:19.800Z,1.17
2019-06-27T08:47:48.798Z,1.73
2019-06-27T08:50:19.239Z,1.00
2019-06-27T08:52:48.247Z,0.90
2019-06-27T08:55:17.563Z,0.93
2019-06-27T08:57:46.514Z,1.13
2019-06-27T09:00:17.173Z,1.33
2019-06-27T09:02:46.131Z,1.30
2019-06-27T09:05:15.224Z,1.03
2019-06-27T09:07:44.089Z,0.80
2019-06-27T09:10:15.472Z,1.30
2019-06-27T09:12:44.446Z,0.97
2019-06-27T09:15:15.330Z,1.00
2019-06-27T09:17:44.400Z,1.10
2019-06-27T09:20:14.316Z,1.10
2019-06-27T09:22:43.578Z,0.80
2019-06-27T09:25:12.502Z,1.10
2019-06-27T09:27:41.669Z,1.00
2019-06-27T09:30:11.899Z,0.90
2019-06-27T09:32:40.936Z,1.10
2019-06-27T09:35:10.239Z,1.07
2019-06-27T09:37:39.171Z,1.20
2019-06-27T09:40:10.460Z,1.00
2019-06-27T09:42:39.723Z,0.80
2019-06-27T09:45:10.391Z,0.70
2019-06-27T09:47:39.486Z,0.80
2019-06-27T09:50:09.770Z,1.10
2019-06-27T09:52:38.679Z,0.90
2019-06-27T09:55:08.317Z,1.07
2019-06-27T09:57:37.962Z,0.80
2019-06-27T10:00:08.021Z,1.10
2019-06-27T10:02:41.565Z,1.00
2019-06-27T10:05:08.511Z,1.10
2019-06-27T10:07:37.414Z,0.80
2019-06-27T10:10:06.637Z,0.80
2019-06-27T10:12:42.179Z,0.90
2019-06-27T10:15:07.835Z,1.20
2019-06-27T10:17:37.126Z,1.00
2019-06-27T10:20:06.908Z,0.90
2019-06-27T10:22:35.880Z,1.03
2019-06-27T10:25:05.242Z,1.20
2019-06-27T10:27:34.838Z,0.90
2019-06-27T10:30:03.955Z,0.90
2019-06-27T10:32:32.896Z,1.00
2019-06-27T10:35:01.951Z,0.80
2019-06-27T10:37:30.970Z,0.90
2019-06-27T10:39:59.895Z,0.90
2019-06-27T10:42:28.872Z,0.90
2019-06-27T10:44:57.884Z,1.00
2019-06-27T10:47:26.812Z,0.83
2019-06-27T10:49:55.804Z,0.93
2019-06-27T10:52:26.025Z,0.90
2019-06-27T10:54:55.214Z,0.83
2019-06-27T10:57:24.023Z,1.10
2019-06-27T10:59:52.884Z,0.90
2019-06-27T11:02:22.015Z,1.00
2019-06-27T11:04:51.022Z,0.90
2019-06-27T11:07:19.960Z,1.20
2019-06-27T11:09:50.289Z,0.80
2019-06-27T11:12:19.854Z,1.10
2019-06-27T11:14:58.542Z,1.30
2019-06-27T11:17:19.537Z,1.00
2019-06-27T11:19:52.657Z,0.97
2019-06-27T11:22:19.771Z,1.10
2019-06-27T11:24:49.307Z,0.77
2019-06-27T11:27:18.422Z,0.90
2019-06-27T11:29:47.511Z,0.97
2019-06-27T11:32:16.533Z,0.87
2019-06-27T11:34:45.728Z,1.03
2019-06-27T11:37:14.542Z,1.00
2019-06-27T11:39:43.555Z,0.67
2019-06-27T11:42:12.581Z,0.93
2019-06-27T11:44:41.997Z,0.80
2019-06-27T11:47:11.335Z,0.90
2019-06-27T11:49:40.561Z,1.00
2019-06-27T11:52:09.891Z,1.17
2019-06-27T11:54:38.772Z,0.80
2019-06-27T11:57:07.609Z,0.80
2019-06-27T11:59:36.864Z,0.97
2019-06-27T12:02:05.866Z,1.07
2019-06-27T12:04:34.786Z,0.80
2019-06-27T12:07:03.872Z,0.77
2019-06-27T12:09:32.823Z,0.77
2019-06-27T12:12:02.057Z,0.70
2019-06-27T12:14:31.528Z,0.70
2019-06-27T12:17:01.045Z,0.60
2019-06-27T12:19:29.996Z,0.53
2019-06-27T12:21:58.968Z,0.70
2019-06-27T12:24:28.011Z,0.83
2019-06-27T12:26:56.956Z,0.70
2019-06-27T12:29:26.120Z,0.83
2019-06-27T12:31:55.031Z,0.70
2019-06-27T12:34:23.977Z,0.67
2019-06-27T12:36:52.917Z,1.20
2019-06-27T12:39:21.832Z,1.30
2019-06-27T12:41:50.683Z,0.87
2019-06-27T12:44:19.773Z,0.90
2019-06-27T12:46:48.984Z,1.10
2019-06-27T12:49:18.089Z,1.13
2019-06-27T12:51:46.930Z,1.20
2019-06-27T12:54:15.868Z,0.90
2019-06-27T12:56:44.850Z,1.10
2019-06-27T12:59:14.247Z,1.00
2019-06-27T13:01:43.163Z,1.07
2019-06-27T13:04:22.962Z,1.33
2019-06-27T13:06:43.716Z,0.90
2019-06-27T13:09:12.725Z,0.90
2019-06-27T13:11:41.878Z,1.10
2019-06-27T13:14:10.734Z,1.10
2019-06-27T13:16:39.603Z,1.10
2019-06-27T13:19:08.776Z,1.10
2019-06-27T13:21:37.722Z,1.00
2019-06-27T13:24:06.560Z,0.87
2019-06-27T13:26:35.489Z,0.97
2019-06-27T13:29:04.827Z,1.00
2019-06-27T13:31:34.483Z,1.00
2019-06-27T13:34:03.375Z,1.60
2019-06-27T13:36:33.426Z,1.20
2019-06-27T13:39:06.162Z,0.93
2019-06-27T13:41:33.514Z,1.03
2019-06-27T13:44:02.442Z,1.20
2019-06-27T13:46:31.473Z,0.90
2019-06-27T13:49:00.758Z,0.77
2019-06-27T13:51:29.749Z,1.10
2019-06-27T13:53:58.949Z,0.90
2019-06-27T13:56:27.957Z,1.10
2019-06-27T13:58:57.516Z,0.90
2019-06-27T14:01:26.501Z,0.83
2019-06-27T14:03:55.519Z,1.00
2019-06-27T14:06:24.943Z,0.80
2019-06-27T14:08:53.902Z,1.00
2019-06-27T14:11:22.757Z,0.87
2019-06-27T14:13:52.020Z,1.13
2019-06-27T14:16:21.000Z,0.80
2019-06-27T14:18:49.953Z,1.23
2019-06-27T14:21:18.900Z,0.97
2019-06-27T14:23:47.944Z,0.80
2019-06-27T14:26:16.965Z,1.10
2019-06-27T14:28:45.848Z,1.37
2019-06-27T14:31:15.412Z,0.90
2019-06-27T14:33:45.406Z,1.00
2019-06-27T14:36:14.786Z,1.10
2019-06-27T14:38:43.969Z,0.90
2019-06-27T14:41:12.844Z,0.97
2019-06-27T14:43:41.850Z,0.90
2019-06-27T14:46:10.879Z,1.20
2019-06-27T14:48:40.076Z,0.93
2019-06-27T14:51:09.077Z,1.00
2019-06-27T14:53:38.256Z,0.90
2019-06-27T14:56:07.207Z,1.30
2019-06-27T14:58:36.092Z,1.00
2019-06-27T15:01:09.394Z,0.90
2019-06-27T15:03:35.871Z,1.07
2019-06-27T15:06:04.941Z,1.30
2019-06-27T15:08:34.103Z,0.97
2019-06-27T15:11:03.212Z,1.03
2019-06-27T15:13:32.595Z,1.10
2019-06-27T15:16:11.773Z,1.13
2019-06-27T15:18:32.604Z,1.10
2019-06-27T15:21:01.774Z,1.00
2019-06-27T15:23:31.181Z,0.90
2019-06-27T15:26:00.436Z,0.90
2019-06-27T15:28:29.515Z,1.20
2019-06-27T15:30:58.778Z,0.90
2019-06-27T15:33:28.208Z,1.10
2019-06-27T15:35:57.141Z,1.20
2019-06-27T15:38:26.379Z,1.23
2019-06-27T15:40:55.805Z,1.20
2019-06-27T15:43:24.856Z,1.10
2019-06-27T15:45:54.037Z,0.93
2019-06-27T15:48:22.846Z,1.20
2019-06-27T15:50:51.723Z,1.10
2019-06-27T15:53:20.566Z,0.87
2019-06-27T15:55:49.552Z,1.00
2019-06-27T15:58:18.881Z,1.27
2019-06-27T16:00:48.233Z,1.10
2019-06-27T16:03:17.250Z,1.13
2019-06-27T16:05:46.163Z,1.10
2019-06-27T16:08:15.423Z,1.30
2019-06-27T16:10:44.703Z,1.27
2019-06-27T16:13:13.662Z,1.20
2019-06-27T16:15:42.866Z,1.40
2019-06-27T16:18:11.888Z,1.43
2019-06-27T16:20:40.880Z,1.20
2019-06-27T16:23:09.802Z,0.90
2019-06-27T16:25:38.827Z,1.23
2019-06-27T16:28:07.691Z,1.30
2019-06-27T16:30:36.995Z,1.53
2019-06-27T16:33:05.990Z,1.30
2019-06-27T16:35:34.875Z,1.57
2019-06-27T16:38:04.483Z,1.40
2019-06-27T16:40:33.608Z,1.50
2019-06-27T16:43:02.665Z,1.47
2019-06-27T16:45:31.633Z,1.10
2019-06-27T16:48:00.796Z,1.60
2019-06-27T16:50:29.895Z,1.40
2019-06-27T16:52:58.746Z,1.17
2019-06-27T16:55:27.723Z,1.50
2019-06-27T16:57:56.773Z,1.80
2019-06-27T17:00:25.819Z,1.30
2019-06-27T17:02:54.662Z,1.40
2019-06-27T17:05:23.648Z,1.40
2019-06-27T17:07:52.840Z,1.27
2019-06-27T17:10:21.871Z,1.20
2019-06-27T17:12:50.807Z,1.20
2019-06-27T17:15:19.709Z,1.47
2019-06-27T17:17:48.886Z,1.50
2019-06-27T17:20:18.220Z,1.33
2019-06-27T17:22:47.171Z,1.30
2019-06-27T17:25:16.464Z,1.60
2019-06-27T17:27:45.680Z,1.20
2019-06-27T17:30:16.442Z,1.40
2019-06-27T17:32:45.727Z,1.30
2019-06-27T17:35:14.819Z,1.50
2019-06-27T17:37:44.025Z,1.10
2019-06-27T17:40:13.887Z,1.40
2019-06-27T17:42:43.224Z,1.23
2019-06-27T17:45:12.310Z,1.30
2019-06-27T17:47:41.392Z,1.30
2019-06-27T17:50:10.438Z,1.37
2019-06-27T17:52:39.710Z,1.10
2019-06-27T17:55:09.062Z,1.20
2019-06-27T17:57:38.412Z,1.20
2019-06-27T18:00:07.903Z,1.30
2019-06-27T18:05:23.598Z,1.17
2019-06-27T18:07:52.603Z,1.10
2019-06-27T18:10:22.011Z,1.00
2019-06-27T18:12:51.039Z,1.43
2019-06-27T18:15:20.099Z,1.33
2019-06-27T18:17:49.043Z,1.00
2019-06-27T18:20:18.599Z,1.23
2019-06-27T18:22:47.633Z,1.20
2019-06-27T18:25:16.688Z,1.27
2019-06-27T18:27:45.790Z,1.20
2019-06-27T18:30:15.199Z,1.50
2019-06-27T18:32:44.524Z,0.90
2019-06-27T18:35:13.903Z,0.90
2019-06-27T18:37:43.099Z,1.20
2019-06-27T18:40:12.452Z,1.10
2019-06-27T18:42:41.275Z,1.00
2019-06-27T18:45:10.273Z,1.23
2019-06-27T18:47:39.639Z,1.30
2019-06-27T18:50:08.803Z,1.20
2019-06-27T18:52:37.693Z,1.20
2019-06-27T18:55:07.703Z,1.27
2019-06-27T18:57:36.919Z,1.00
2019-06-27T19:00:07.456Z,0.93
2019-06-27T19:02:36.490Z,1.10
2019-06-27T19:05:05.926Z,1.00
2019-06-27T19:07:44.870Z,1.20
2019-06-27T19:10:07.156Z,1.00
2019-06-27T19:12:36.105Z,0.93
2019-06-27T19:15:05.455Z,0.93
2019-06-27T19:17:34.510Z,0.90
2019-06-27T19:20:20.652Z,1.30
2019-06-27T19:23:24.135Z,1.10
2019-06-27T19:25:54.931Z,1.00
2019-06-27T19:28:24.174Z,1.00
2019-06-27T19:30:53.322Z,0.97
2019-06-27T19:33:22.587Z,1.00
2019-06-27T19:35:51.631Z,0.90
2019-06-27T19:38:20.486Z,1.13
2019-06-27T19:40:49.664Z,1.37
2019-06-27T19:43:27.706Z,1.20
2019-06-27T19:45:49.369Z,0.90
2019-06-27T19:48:21.226Z,1.00
2019-06-27T19:50:49.698Z,1.00
2019-06-27T19:53:18.841Z,0.90
2019-06-27T19:55:48.054Z,1.00
2019-06-27T19:58:17.381Z,1.10
2019-06-27T20:00:46.657Z,1.40
2019-06-27T20:03:16.100Z,0.93
2019-06-27T20:05:45.086Z,1.17
2019-06-27T20:08:19.499Z,0.90
2019-06-27T20:10:45.036Z,1.00
2019-06-27T20:13:13.947Z,0.90
2019-06-27T20:15:43.000Z,1.07
2019-06-27T20:18:12.243Z,0.90
2019-06-27T20:20:41.323Z,1.23
2019-06-27T20:23:10.317Z,1.13
2019-06-27T20:25:39.343Z,0.80
2019-06-27T20:28:08.738Z,1.40
2019-06-27T20:30:37.683Z,1.10
2019-06-27T20:33:06.620Z,1.10
2019-06-27T20:35:36.067Z,1.10
2019-06-27T20:38:05.116Z,1.10
2019-06-27T20:40:34.427Z,1.60
2019-06-27T20:43:03.362Z,1.10
2019-06-27T20:45:32.410Z,0.90
2019-06-27T20:48:01.510Z,0.90
2019-06-27T20:50:30.523Z,1.03
2019-06-27T20:52:59.499Z,1.00
2019-06-27T20:55:28.610Z,1.23
2019-06-27T20:57:57.682Z,0.87
2019-06-27T21:00:27.001Z,1.20
2019-06-27T21:02:55.927Z,0.80
2019-06-27T21:05:24.914Z,0.87
2019-06-27T21:07:54.201Z,2.00
2019-06-27T21:10:23.589Z,1.10
2019-06-27T21:12:52.595Z,1.20
2019-06-27T21:15:22.989Z,1.00
2019-06-27T21:17:51.823Z,1.10
2019-06-27T21:20:21.103Z,0.97
2019-06-27T21:22:49.976Z,0.90
2019-06-27T21:25:19.565Z,0.90
2019-06-27T21:27:48.478Z,1.03
2019-06-27T21:30:17.821Z,1.00
2019-06-27T21:32:48.479Z,0.90
2019-06-27T21:35:18.486Z,1.20
2019-06-27T21:37:47.911Z,1.00
2019-06-27T21:40:18.092Z,0.90
2019-06-27T21:42:47.280Z,1.00
2019-06-27T21:45:16.765Z,0.90
2019-06-27T21:47:45.719Z,1.07
2019-06-27T21:50:14.967Z,1.00
2019-06-27T21:52:43.914Z,1.03
2019-06-27T21:55:12.932Z,0.90
2019-06-27T21:57:41.921Z,1.20
2019-06-27T22:00:11.131Z,1.10
2019-06-27T22:02:40.157Z,1.33
2019-06-27T22:05:09.630Z,1.10
2019-06-27T22:07:39.023Z,1.33
2019-06-27T22:10:10.097Z,1.30
2019-06-27T22:12:39.091Z,1.00
2019-06-27T22:15:08.423Z,1.40
2019-06-27T22:17:37.779Z,1.03
2019-06-27T22:20:15.014Z,1.10
2019-06-27T22:22:38.319Z,1.30
2019-06-27T22:25:08.550Z,1.20
2019-06-27T22:27:37.516Z,1.03
2019-06-27T22:30:07.205Z,1.40
2019-06-27T22:32:36.056Z,1.03
2019-06-27T22:35:05.374Z,1.10
2019-06-27T22:37:33.496Z,1.50
2019-06-27T22:40:20.540Z,1.43
2019-06-27T22:43:07.375Z,1.23
2019-06-27T22:45:54.348Z,1.20
2019-06-27T22:48:22.677Z,1.00
2019-06-27T22:51:11.170Z,1.20
2019-06-27T22:54:05.398Z,1.00
2019-06-27T22:56:34.350Z,1.10
2019-06-27T22:59:03.382Z,1.07
2019-06-27T23:01:32.387Z,1.00
2019-06-27T23:04:01.527Z,1.10
2019-06-27T23:06:30.773Z,0.80
2019-06-27T23:08:59.748Z,1.10
2019-06-27T23:11:28.825Z,1.57
2019-06-27T23:13:58.113Z,1.37
2019-06-27T23:16:27.411Z,1.30
2019-06-27T23:18:56.635Z,1.10
2019-06-27T23:21:25.566Z,1.10
2019-06-27T23:23:54.788Z,1.20
2019-06-27T23:26:23.913Z,1.40
2019-06-27T23:28:53.007Z,1.37
2019-06-27T23:31:21.934Z,0.97
2019-06-27T23:33:51.325Z,1.10
2019-06-27T23:36:20.264Z,1.40
2019-06-27T23:38:49.414Z,0.90
2019-06-27T23:41:18.776Z,0.90
2019-06-27T23:43:47.829Z,1.10
2019-06-27T23:46:35.872Z,1.00
2019-06-27T23:49:04.803Z,1.20
2019-06-27T23:51:33.655Z,0.93
2019-06-27T23:54:02.681Z,1.03
2019-06-27T23:56:31.916Z,0.80
2019-06-27T23:59:00.949Z,1.10
